M I D A S
Marine Information and Data Acquisition System
Tripno 1503 of the Zeeleeuw from 2008-06-13 04:43:49 to 2008-06-13 13:35:45
Back to CruiseResearch ActivitiesStationsMapUnderway DataData graphs

EquipmentUnitsComment
TimeDGPSUTC
LatitudeDGPSDM.mWGS84
LongitudeDGPSDM.mWGS84
HeadingGyrodeg 
SOGDGPSknotsSpeed over ground
COGDGPSdegCourse over ground
DepthEcho soundermeters200 kHz
Missing or incorrect values are displayed as -999
Navigation data collected by the RV Zeeleeuw from 2008-06-13 04:12:45 to 2008-06-13 13:36:31
                                                                                    Next 1000 lines
Time Latitude Longitude Heading SOG COG Depth
2008-06-13 04:12:55 51°13.623 2°56.044 111.6 1 293 -999
2008-06-13 04:12:59 51°13.623 2°56.042 111.8 1.4 296 -999
2008-06-13 04:13:05 51°13.625 2°56.037 112.3 1.7 295 -999
2008-06-13 04:13:09 51°13.626 2°56.034 112.4 2 297 -999
2008-06-13 04:13:15 51°13.627 2°56.029 112.4 2.2 294 -999
2008-06-13 04:13:19 51°13.628 2°56.025 112.6 2.4 295 -999
2008-06-13 04:13:25 51°13.63 2°56.019 112.9 2.7 294 -999
2008-06-13 04:13:29 51°13.631 2°56.014 113.4 2.9 296 -999
2008-06-13 04:13:35 51°13.634 2°56.007 113.9 3.1 296 -999
2008-06-13 04:13:39 51°13.635 2°56.002 114 3.2 297 -999
2008-06-13 04:13:45 51°13.638 2°55.994 114 3.4 296 -999
2008-06-13 04:13:50 51°13.64 2°55.986 113.4 3.6 295 -999
2008-06-13 04:13:55 51°13.642 2°55.978 112.6 3.9 293 -999
2008-06-13 04:13:59 51°13.644 2°55.972 112.3 4 293 -999
2008-06-13 04:14:05 51°13.647 2°55.961 111.8 4.2 292 -999
2008-06-13 04:14:09 51°13.648 2°55.954 111.7 4.3 291 -999
2008-06-13 04:14:15 51°13.651 2°55.943 111.5 4.4 291 -999
2008-06-13 04:14:19 51°13.652 2°55.936 111.4 4.5 290 -999
2008-06-13 04:14:25 51°13.655 2°55.925 111.3 4.5 291 -999
2008-06-13 04:14:29 51°13.657 2°55.917 111.9 4.6 290 -999
2008-06-13 04:14:35 51°13.659 2°55.906 112.5 4.5 292 -999
2008-06-13 04:14:39 51°13.661 2°55.898 112.9 4.5 292 -999
2008-06-13 04:14:45 51°13.664 2°55.887 113.3 4.5 293 -999
2008-06-13 04:14:49 51°13.666 2°55.88 113.6 4.5 292 -999
2008-06-13 04:14:55 51°13.669 2°55.869 113.8 4.5 293 -999
2008-06-13 04:14:59 51°13.671 2°55.862 113.9 4.4 292 -999
2008-06-13 04:15:04 51°13.674 2°55.853 114 4.5 293 -999
2008-06-13 04:15:09 51°13.676 2°55.843 114.1 4.6 293 -999
2008-06-13 04:15:15 51°13.679 2°55.832 114.1 4.7 293 -999
2008-06-13 04:15:19 51°13.681 2°55.824 114 4.7 293 -999
2008-06-13 04:15:25 51°13.684 2°55.813 114 4.8 293 -999
2008-06-13 04:15:29 51°13.686 2°55.805 113.9 4.8 293 -999
2008-06-13 04:15:35 51°13.69 2°55.794 113.8 4.7 293 -999
2008-06-13 04:15:39 51°13.692 2°55.786 113.7 4.4 293 -999
2008-06-13 04:15:45 51°13.694 2°55.776 113.7 4.1 293 -999
2008-06-13 04:15:49 51°13.696 2°55.77 114.1 3.7 294 -999
2008-06-13 04:15:55 51°13.698 2°55.762 114.6 3.2 292 -999
2008-06-13 04:15:59 51°13.699 2°55.758 114.4 2.4 292 -999
2008-06-13 04:16:03 51°13.699 2°55.756 113.4 1.4 296 12.9
2008-06-13 04:16:09 51°13.7 2°55.755 111.7 0.2 325 13
2008-06-13 04:16:15 51°13.7 2°55.757 108.9 0.7 94 13
2008-06-13 04:16:19 51°13.699 2°55.758 103.4 0.8 94 13.3
2008-06-13 04:16:23 51°13.7 2°55.759 95.9 0.6 84 13.4
2008-06-13 04:16:29 51°13.699 2°55.76 90.6 0.2 113 -999
2008-06-13 04:16:35 51°13.699 2°55.76 87 0.3 252 -999
2008-06-13 04:16:39 51°13.699 2°55.758 83.9 0.6 248 -999
2008-06-13 04:16:43 51°13.699 2°55.757 82 1 261 13.5
2008-06-13 04:16:49 51°13.698 2°55.753 80.8 1.4 258 13.2
2008-06-13 04:16:55 51°13.698 2°55.748 79.8 1.8 258 12.9
2008-06-13 04:16:59 51°13.697 2°55.745 78.5 2 255 -999
2008-06-13 04:17:05 51°13.697 2°55.74 76.7 1.9 256 -999
2008-06-13 04:17:09 51°13.696 2°55.737 74.7 1.8 251 -999
2008-06-13 04:17:15 51°13.695 2°55.733 73.7 1.6 254 -999
2008-06-13 04:17:19 51°13.695 2°55.731 72.7 1 244 -999
2008-06-13 04:17:25 51°13.694 2°55.73 70.9 0.3 264 -999
2008-06-13 04:17:30 51°13.695 2°55.731 67.7 0.5 64 -999
2008-06-13 04:17:35 51°13.696 2°55.734 62.5 1.1 56 -999
2008-06-13 04:17:39 51°13.697 2°55.736 55.6 1.8 53 12.6
2008-06-13 04:17:45 51°13.699 2°55.74 50.9 1.9 50 4.7
2008-06-13 04:17:49 51°13.7 2°55.742 44.6 1.7 45 4.7
2008-06-13 04:17:55 51°13.702 2°55.745 38.4 1.4 50 4.9
2008-06-13 04:17:59 51°13.702 2°55.746 35.5 0.9 54 12.9
2008-06-13 04:18:03 51°13.703 2°55.747 33.3 0.4 89 13
2008-06-13 04:18:09 51°13.702 2°55.747 30.4 0.5 173 13.2
2008-06-13 04:18:15 51°13.7 2°55.747 28.2 0.9 193 13.1
2008-06-13 04:18:19 51°13.699 2°55.746 26.8 1.3 198 12.9
2008-06-13 04:18:23 51°13.697 2°55.745 26 1.7 200 13.1
2008-06-13 04:18:29 51°13.694 2°55.743 25.6 2 201 -999
2008-06-13 04:18:35 51°13.691 2°55.741 25.3 2 200 -999
2008-06-13 04:18:39 51°13.689 2°55.74 25.3 1.9 201 -999
2008-06-13 04:18:45 51°13.686 2°55.738 25.4 1.7 202 -999
2008-06-13 04:18:49 51°13.685 2°55.737 26 1.2 203 -999
2008-06-13 04:18:55 51°13.685 2°55.738 25.9 0.1 122 -999
2008-06-13 04:18:59 51°13.686 2°55.738 22.4 0.9 12 -999
2008-06-13 04:19:05 51°13.688 2°55.739 16.2 1.6 11 -999
2008-06-13 04:19:09 51°13.691 2°55.739 8.3 2.3 1 -999
2008-06-13 04:19:15 51°13.696 2°55.738 359.7 3 356 -999
2008-06-13 04:19:19 51°13.699 2°55.737 353.6 3.2 350 5
2008-06-13 04:19:25 51°13.705 2°55.734 348.3 3.2 345 12.8
2008-06-13 04:19:29 51°13.708 2°55.732 344.4 3.5 340 4.8
2008-06-13 04:19:35 51°13.714 2°55.728 340.3 4 336 11.6
2008-06-13 04:19:39 51°13.719 2°55.724 337.2 4.3 333 11.8
2008-06-13 04:19:45 51°13.726 2°55.719 334.9 4.7 333 11
2008-06-13 04:19:49 51°13.731 2°55.714 334 5.1 333 10.1
2008-06-13 04:19:55 51°13.739 2°55.708 334.1 5.5 333 9.7
2008-06-13 04:19:59 51°13.745 2°55.703 334.4 5.8 333 9.8
2008-06-13 04:20:05 51°13.754 2°55.695 334.5 6.1 333 9.6
2008-06-13 04:20:09 51°13.76 2°55.69 333.8 6.3 332 9.6
2008-06-13 04:20:15 51°13.77 2°55.682 333.3 6.5 333 9.7
2008-06-13 04:20:19 51°13.776 2°55.677 333.5 6.7 333 9.7
2008-06-13 04:20:25 51°13.787 2°55.669 333.8 6.8 333 9.8
2008-06-13 04:20:29 51°13.793 2°55.663 333.8 7 332 9.9
2008-06-13 04:20:35 51°13.804 2°55.654 333.8 7.1 333 9.7
2008-06-13 04:20:39 51°13.811 2°55.648 333.8 7.2 332 9.7
2008-06-13 04:20:43 51°13.818 2°55.643 334 7.3 333 9.6
2008-06-13 04:20:49 51°13.829 2°55.634 334.4 7.4 333 9.9
2008-06-13 04:20:55 51°13.84 2°55.625 335 7.4 334 9.9
2008-06-13 04:20:59 51°13.848 2°55.619 335.2 7.5 333 9.9
2008-06-13 04:21:03 51°13.855 2°55.613 335.2 7.5 334 10
2008-06-13 04:21:09 51°13.866 2°55.604 335.2 7.5 334 10.1
2008-06-13 04:21:15 51°13.877 2°55.595 335.5 7.6 333 10
2008-06-13 04:21:19 51°13.885 2°55.589 334.9 7.7 334 10
2008-06-13 04:21:25 51°13.897 2°55.579 334.6 7.9 334 10.2
2008-06-13 04:21:29 51°13.905 2°55.574 335.1 8.1 335 10.1
2008-06-13 04:21:35 51°13.917 2°55.564 336.1 8.4 334 10.1
2008-06-13 04:21:39 51°13.926 2°55.557 336 8.6 334 10.1
2008-06-13 04:21:43 51°13.935 2°55.551 334.9 8.9 336 10.1
2008-06-13 04:21:49 51°13.949 2°55.541 335.7 9 336 10.1
2008-06-13 04:21:55 51°13.963 2°55.53 336.6 9.2 334 10.1
2008-06-13 04:21:59 51°13.972 2°55.523 335 9.3 333 10
2008-06-13 04:22:05 51°13.986 2°55.512 334.4 9.5 335 10
2008-06-13 04:22:09 51°13.996 2°55.505 335.2 9.5 335 10.1
2008-06-13 04:22:15 51°14.01 2°55.494 335.5 9.6 334 10.1
2008-06-13 04:22:19 51°14.02 2°55.488 335.5 9.6 336 10
2008-06-13 04:22:25 51°14.035 2°55.477 336.7 9.6 335 10.1
2008-06-13 04:22:29 51°14.044 2°55.47 336.9 9.7 335 10
2008-06-13 04:22:35 51°14.059 2°55.458 336.5 9.7 334 10
2008-06-13 04:22:39 51°14.069 2°55.451 335.6 9.8 335 10
2008-06-13 04:22:43 51°14.079 2°55.444 336 9.8 335 10.1
2008-06-13 04:22:49 51°14.094 2°55.433 336.9 9.8 334 10.3
2008-06-13 04:22:55 51°14.108 2°55.421 336.4 9.8 333 9.9
2008-06-13 04:22:59 51°14.118 2°55.413 335.8 9.8 334 9.9
2008-06-13 04:23:03 51°14.128 2°55.405 335.8 9.8 332 10.1
2008-06-13 04:23:09 51°14.142 2°55.392 334.2 9.9 330 9.9
2008-06-13 04:23:15 51°14.156 2°55.38 332 9.9 330 10.1
2008-06-13 04:23:19 51°14.166 2°55.371 332.7 9.9 332 10.1
2008-06-13 04:23:25 51°14.18 2°55.358 333.2 10 329 -999
2008-06-13 04:23:29 51°14.19 2°55.348 332 10 328 -999
2008-06-13 04:23:35 51°14.204 2°55.332 328.6 10.2 324 -999
2008-06-13 04:23:39 51°14.213 2°55.322 326.6 10.4 324 10.4
2008-06-13 04:23:45 51°14.227 2°55.304 324.8 10.6 320 -999
2008-06-13 04:23:49 51°14.236 2°55.292 322.9 10.8 319 -999
2008-06-13 04:23:55 51°14.249 2°55.272 320.6 10.9 317 -999
2008-06-13 04:23:59 51°14.258 2°55.258 319.4 11 316 -999
2008-06-13 04:24:05 51°14.27 2°55.236 317.8 11.2 313 10
2008-06-13 04:24:09 51°14.279 2°55.222 315.8 11.2 312 9.8
2008-06-13 04:24:15 51°14.291 2°55.199 314.7 11.3 312 9.9
2008-06-13 04:24:19 51°14.299 2°55.184 313.9 11.4 311 9.8
2008-06-13 04:24:25 51°14.312 2°55.161 312.7 11.4 312 9.7
2008-06-13 04:24:30 51°14.323 2°55.143 312.8 11.5 313 9.7
2008-06-13 04:24:35 51°14.334 2°55.125 314.1 11.6 314 9.7
2008-06-13 04:24:39 51°14.343 2°55.109 314.7 11.5 312 10.2
2008-06-13 04:24:45 51°14.355 2°55.087 314.3 11.5 312 10.2
2008-06-13 04:24:50 51°14.366 2°55.068 313.5 11.6 313 -999
2008-06-13 04:24:55 51°14.377 2°55.051 314.4 11.5 315 -999
2008-06-13 04:24:59 51°14.387 2°55.037 317 11.6 316 9.8
2008-06-13 04:25:03 51°14.396 2°55.022 318.1 11.6 315 9.8
2008-06-13 04:25:10 51°14.412 2°54.997 318.3 11.6 314 9.8
2008-06-13 04:25:15 51°14.423 2°54.978 317.7 11.7 314 10.2
2008-06-13 04:25:19 51°14.432 2°54.964 317 11.7 316 10.3
2008-06-13 04:25:24 51°14.445 2°54.945 318.3 11.8 316 10.4
2008-06-13 04:25:30 51°14.459 2°54.923 320.1 11.8 316 10.2
2008-06-13 04:25:35 51°14.471 2°54.906 320.1 11.8 317 10.3
2008-06-13 04:25:39 51°14.481 2°54.892 320.5 11.8 319 10.2
2008-06-13 04:25:43 51°14.491 2°54.878 322.5 11.8 319 10
2008-06-13 04:25:49 51°14.505 2°54.856 323.9 11.8 316 9.8
2008-06-13 04:25:55 51°14.518 2°54.833 322.3 11.8 313 9.8
2008-06-13 04:25:59 51°14.527 2°54.818 319.6 11.7 313 9.9
2008-06-13 04:26:05 51°14.541 2°54.796 319.1 11.7 314 9.7
2008-06-13 04:26:10 51°14.552 2°54.777 319.9 11.8 312 9.7
2008-06-13 04:26:15 51°14.563 2°54.758 319 11.8 312 9.6
2008-06-13 04:26:19 51°14.572 2°54.742 318.6 11.7 311 9.5
2008-06-13 04:26:25 51°14.583 2°54.717 318 11.8 308 9.6
2008-06-13 04:26:30 51°14.592 2°54.696 315 11.9 304 9.6
2008-06-13 04:26:35 51°14.602 2°54.674 311.5 11.8 304 9.6
2008-06-13 04:26:39 51°14.609 2°54.656 309.9 11.8 304 9.6
2008-06-13 04:26:45 51°14.62 2°54.63 309.8 11.6 305 9.7
2008-06-13 04:26:49 51°14.627 2°54.613 310.7 11.6 304 9.5
2008-06-13 04:26:55 51°14.638 2°54.588 310.3 11.7 305 9.7
2008-06-13 04:26:59 51°14.645 2°54.571 310.5 11.8 305 9.6
2008-06-13 04:27:05 51°14.657 2°54.545 310.8 11.8 305 9.4
2008-06-13 04:27:10 51°14.666 2°54.524 310.6 11.9 304 9.6
2008-06-13 04:27:15 51°14.675 2°54.502 310 11.8 304 9.6
2008-06-13 04:27:19 51°14.682 2°54.485 310.2 11.7 304 9.9
2008-06-13 04:27:23 51°14.689 2°54.467 310 11.8 298 10
2008-06-13 04:27:29 51°14.698 2°54.439 306.4 11.9 296 10.1
2008-06-13 04:27:35 51°14.705 2°54.41 303 11.8 293 9.8
2008-06-13 04:27:39 51°14.71 2°54.391 300.2 11.7 292 9.7
2008-06-13 04:27:43 51°14.715 2°54.371 298.3 11.7 290 9.8
2008-06-13 04:27:49 51°14.721 2°54.342 296.8 11.7 289 10
2008-06-13 04:27:55 51°14.726 2°54.311 294.8 12 282 9.9
2008-06-13 04:27:59 51°14.729 2°54.29 290.5 11.9 283 9.9
2008-06-13 04:28:03 51°14.731 2°54.269 288 12 279 9.8
2008-06-13 04:28:09 51°14.734 2°54.238 286 12.1 279 9.8
2008-06-13 04:28:15 51°14.736 2°54.205 283.7 12.2 275 9.9
2008-06-13 04:28:19 51°14.738 2°54.184 282.2 12.2 277 9.9
2008-06-13 04:28:25 51°14.739 2°54.152 281.4 12.2 275 9.8
2008-06-13 04:28:30 51°14.741 2°54.125 280.8 12.2 276 9.7
2008-06-13 04:28:35 51°14.742 2°54.098 280.4 12.3 275 9.8
2008-06-13 04:28:39 51°14.743 2°54.076 279.7 12.2 274 9.4
2008-06-13 04:28:45 51°14.745 2°54.044 279.5 12.3 274 9.6
2008-06-13 04:28:50 51°14.745 2°54.017 278.8 12.2 274 9.4
2008-06-13 04:28:55 51°14.746 2°53.99 278.5 12.2 272 9.7
2008-06-13 04:28:59 51°14.747 2°53.968 278 12.3 275 9.9
2008-06-13 04:29:05 51°14.748 2°53.936 278.6 12.2 274 9.8
2008-06-13 04:29:10 51°14.75 2°53.909 278.9 12.1 276 9.9
2008-06-13 04:29:15 51°14.752 2°53.882 280.1 12 277 10.1
2008-06-13 04:29:19 51°14.754 2°53.861 281.2 12.1 277 10.1
2008-06-13 04:29:25 51°14.756 2°53.829 281.7 12.2 277 10.1
2008-06-13 04:29:29 51°14.758 2°53.807 281.7 12.2 277 10.4
2008-06-13 04:29:35 51°14.76 2°53.775 281.7 12.1 277 10.6
2008-06-13 04:29:39 51°14.761 2°53.754 281.4 12.1 276 9.8
2008-06-13 04:29:43 51°14.763 2°53.733 281.9 12.1 279 10.2
2008-06-13 04:29:49 51°14.767 2°53.701 282.8 12.1 280 10.4
2008-06-13 04:29:55 51°14.769 2°53.669 283.5 12 279 10.1
2008-06-13 04:29:59 51°14.772 2°53.648 284 12.1 279 9.8
2008-06-13 04:30:03 51°14.774 2°53.626 283.9 12.1 280 10
2008-06-13 04:30:10 51°14.777 2°53.59 284.4 12.1 279 9.8
2008-06-13 04:30:15 51°14.78 2°53.563 284.2 12.1 279 10.7
2008-06-13 04:30:19 51°14.782 2°53.542 283.3 12.1 279 9.9
2008-06-13 04:30:25 51°14.785 2°53.51 283.3 12 278 10.2
2008-06-13 04:30:30 51°14.788 2°53.484 283 12 280 10.2
2008-06-13 04:30:35 51°14.791 2°53.458 284 12.1 279 10.8
2008-06-13 04:30:39 51°14.793 2°53.437 284.4 12.1 279 10.1
2008-06-13 04:30:45 51°14.796 2°53.405 284.3 12.1 278 10.3
2008-06-13 04:30:50 51°14.798 2°53.378 283.9 12.2 276 10.6
2008-06-13 04:30:55 51°14.8 2°53.352 282.1 12.1 278 10.5
2008-06-13 04:30:59 51°14.802 2°53.331 281.5 12.1 276 10.6
2008-06-13 04:31:05 51°14.804 2°53.298 280.9 12.2 276 10.3
2008-06-13 04:31:09 51°14.805 2°53.277 280.7 12.1 276 10.4
2008-06-13 04:31:15 51°14.808 2°53.245 280 12.1 278 10.1
2008-06-13 04:31:19 51°14.809 2°53.223 280.8 12.2 276 10
2008-06-13 04:31:25 51°14.811 2°53.191 280.5 12.2 276 9.8
2008-06-13 04:31:30 51°14.813 2°53.164 280.5 12.3 276 10.1
2008-06-13 04:31:35 51°14.815 2°53.138 280.7 12.2 275 9.7
2008-06-13 04:31:39 51°14.816 2°53.116 280.6 12.2 276 9.9
2008-06-13 04:31:43 51°14.817 2°53.095 280.9 12.2 275 9.8
2008-06-13 04:31:49 51°14.819 2°53.062 280.1 12.1 276 9.6
2008-06-13 04:31:55 51°14.821 2°53.03 280.6 12.1 276 9.7
2008-06-13 04:31:59 51°14.823 2°53.009 281.1 12.3 276 9.6
2008-06-13 04:32:03 51°14.824 2°52.987 280.7 12 277 9.4
2008-06-13 04:32:09 51°14.826 2°52.956 281.2 12.1 275 9.8
2008-06-13 04:32:15 51°14.828 2°52.923 281.6 12.2 276 9.6
2008-06-13 04:32:19 51°14.83 2°52.902 280.8 12.2 275 9.3
2008-06-13 04:32:23 51°14.832 2°52.881 280.6 12.2 278 9.4
2008-06-13 04:32:29 51°14.834 2°52.849 280.9 12.1 275 9.2
2008-06-13 04:32:35 51°14.836 2°52.817 280.8 12.2 276 9.5
2008-06-13 04:32:39 51°14.837 2°52.796 280.7 12.2 276 9.6
2008-06-13 04:32:43 51°14.838 2°52.774 280.2 12.2 274 9.6
2008-06-13 04:32:49 51°14.84 2°52.742 280 12.2 275 9.7
2008-06-13 04:32:55 51°14.841 2°52.71 279.3 12.1 274 9.7
2008-06-13 04:32:59 51°14.843 2°52.688 279.3 12.2 276 9.8
2008-06-13 04:33:05 51°14.844 2°52.656 279.2 12.2 273 9.3
2008-06-13 04:33:09 51°14.846 2°52.635 278.4 12.1 278 9.2
2008-06-13 04:33:15 51°14.847 2°52.602 280.1 12.3 273 9.3
2008-06-13 04:33:19 51°14.849 2°52.581 280.1 12.2 276 9.5
2008-06-13 04:33:25 51°14.851 2°52.549 280.1 12.2 276 9.7
2008-06-13 04:33:29 51°14.852 2°52.528 280.1 12.1 275 9.6
2008-06-13 04:33:35 51°14.854 2°52.495 280.5 12.2 274 10.1
2008-06-13 04:33:39 51°14.856 2°52.474 280 12.2 276 10
2008-06-13 04:33:45 51°14.858 2°52.442 280.2 12.2 275 9.7
2008-06-13 04:33:50 51°14.86 2°52.415 280.6 12.2 277 9.9
2008-06-13 04:33:55 51°14.862 2°52.389 280.6 12.2 276 9.8
2008-06-13 04:33:59 51°14.863 2°52.367 280.9 12.2 277 9.9
2008-06-13 04:34:05 51°14.866 2°52.335 281 12.2 276 9.9
2008-06-13 04:34:10 51°14.868 2°52.308 281.1 12.2 277 9.8
2008-06-13 04:34:15 51°14.869 2°52.281 281.1 12.2 276 9.8
2008-06-13 04:34:19 51°14.871 2°52.26 281.1 12.2 277 9.9
2008-06-13 04:34:23 51°14.871 2°52.238 280.5 12.2 273 9.9
2008-06-13 04:34:30 51°14.873 2°52.2 279.2 12.2 274 10.1
2008-06-13 04:34:35 51°14.873 2°52.173 277.6 12.3 272 10
2008-06-13 04:34:39 51°14.874 2°52.152 277.9 12.2 271 10.3
2008-06-13 04:34:43 51°14.874 2°52.131 277.1 12.1 272 9.9
2008-06-13 04:34:50 51°14.875 2°52.093 276.5 12.2 274 10.1
2008-06-13 04:34:55 51°14.877 2°52.067 276.6 12.3 274 10
2008-06-13 04:34:59 51°14.876 2°52.044 276.8 12.3 271 10
2008-06-13 04:35:05 51°14.878 2°52.011 276.6 12.4 274 10.1
2008-06-13 04:35:10 51°14.878 2°51.984 276.7 12.4 271 10.2
2008-06-13 04:35:15 51°14.879 2°51.957 276.6 12.2 272 10.3
2008-06-13 04:35:19 51°14.879 2°51.936 277.1 12.1 272 10.6
2008-06-13 04:35:25 51°14.88 2°51.903 276.8 12.2 272 10.4
2008-06-13 04:35:30 51°14.88 2°51.876 276.7 12.3 272 10.2
2008-06-13 04:35:35 51°14.88 2°51.849 276.6 12.3 272 10.1
2008-06-13 04:35:39 51°14.88 2°51.827 275.9 12.3 270 10.3
2008-06-13 04:35:45 51°14.881 2°51.794 275 12.3 272 10.5
2008-06-13 04:35:50 51°14.881 2°51.767 275.1 12.3 271 10.5
2008-06-13 04:35:55 51°14.881 2°51.739 275.7 12.4 269 10.7
2008-06-13 04:35:59 51°14.881 2°51.717 274.7 12.5 271 10.8
2008-06-13 04:36:05 51°14.881 2°51.685 275 12.4 271 10.8
2008-06-13 04:36:10 51°14.881 2°51.657 275 12.4 270 10.6
2008-06-13 04:36:15 51°14.881 2°51.629 275 12.5 269 10.9
2008-06-13 04:36:19 51°14.881 2°51.608 275.2 12.4 270 10.8
2008-06-13 04:36:25 51°14.881 2°51.575 273.8 12.4 271 10.5
2008-06-13 04:36:30 51°14.881 2°51.547 274.4 12.5 269 10.5
2008-06-13 04:36:35 51°14.881 2°51.52 275 12.4 271 10.7
2008-06-13 04:36:39 51°14.881 2°51.498 275 12.4 270 10.8
2008-06-13 04:36:43 51°14.881 2°51.476 275.1 12.4 270 11.2
2008-06-13 04:36:50 51°14.882 2°51.438 275 12.4 271 11.1
2008-06-13 04:36:55 51°14.882 2°51.41 275.2 12.4 271 11
2008-06-13 04:36:59 51°14.882 2°51.388 275.7 12.4 271 11.3
2008-06-13 04:37:03 51°14.882 2°51.366 275.6 12.6 271 11.4
2008-06-13 04:37:10 51°14.883 2°51.327 276.6 12.6 271 11.3
2008-06-13 04:37:15 51°14.883 2°51.299 275.8 12.5 271 11.3
2008-06-13 04:37:19 51°14.884 2°51.277 276.1 12.5 272 11.5
2008-06-13 04:37:25 51°14.884 2°51.244 276.3 12.6 271 11.5
2008-06-13 04:37:30 51°14.884 2°51.216 276.3 12.4 271 11.5
2008-06-13 04:37:35 51°14.885 2°51.189 276.4 12.5 270 11.7
2008-06-13 04:37:39 51°14.885 2°51.167 275.8 12.4 271 11.3
2008-06-13 04:37:43 51°14.886 2°51.145 276.2 12.4 272 11.3
2008-06-13 04:37:50 51°14.886 2°51.106 276.3 12.5 272 11.4
2008-06-13 04:37:55 51°14.886 2°51.079 275.8 12.4 273 11.2
2008-06-13 04:37:59 51°14.886 2°51.057 276.6 12.5 271 11.3
2008-06-13 04:38:05 51°14.887 2°51.024 276 12.4 271 11.2
2008-06-13 04:38:10 51°14.888 2°50.997 276.3 12.4 273 11.6
2008-06-13 04:38:15 51°14.888 2°50.969 276.9 12.4 271 11.6
2008-06-13 04:38:19 51°14.889 2°50.947 277 12.4 272 11.7
2008-06-13 04:38:25 51°14.889 2°50.914 277 12.3 272 11.7
2008-06-13 04:38:30 51°14.89 2°50.886 277 12.4 271 11.8
2008-06-13 04:38:35 51°14.89 2°50.859 277.2 12.6 271 12
2008-06-13 04:38:39 51°14.89 2°50.837 276.5 12.5 271 11.6
2008-06-13 04:38:43 51°14.891 2°50.815 276.1 12.4 274 11.7
2008-06-13 04:38:50 51°14.892 2°50.776 276.9 12.4 270 11.7
2008-06-13 04:38:55 51°14.893 2°50.748 276.2 12.5 273 12
2008-06-13 04:38:59 51°14.892 2°50.727 276.6 12.5 270 11.6
2008-06-13 04:39:03 51°14.893 2°50.705 276.3 12.6 271 11.9
2008-06-13 04:39:10 51°14.894 2°50.666 275.8 12.5 273 11.9
2008-06-13 04:39:15 51°14.894 2°50.638 276 12.6 271 11.9
2008-06-13 04:39:19 51°14.895 2°50.616 275.7 12.5 273 11.9
2008-06-13 04:39:25 51°14.894 2°50.583 276.1 12.5 268 11.9
2008-06-13 04:39:30 51°14.894 2°50.555 275.2 12.6 271 12.2
2008-06-13 04:39:35 51°14.895 2°50.528 275.7 12.3 273 11.8
2008-06-13 04:39:39 51°14.895 2°50.505 275.7 12.5 271 11.6
2008-06-13 04:39:43 51°14.895 2°50.483 276.2 12.5 272 11.7
2008-06-13 04:39:50 51°14.895 2°50.445 276 12.5 271 11.8
2008-06-13 04:39:55 51°14.895 2°50.417 276.2 12.5 270 12.3
2008-06-13 04:39:59 51°14.896 2°50.395 275.9 12.5 272 12.2
2008-06-13 04:40:05 51°14.896 2°50.361 275.8 12.6 270 12.3
2008-06-13 04:40:10 51°14.895 2°50.334 275.5 12.5 269 12.2
2008-06-13 04:40:15 51°14.895 2°50.306 274.5 12.5 270 12.7
2008-06-13 04:40:19 51°14.896 2°50.285 275.1 12.5 271 12.1
2008-06-13 04:40:25 51°14.897 2°50.252 275 12.4 273 12
2008-06-13 04:40:30 51°14.897 2°50.224 276.5 12.6 270 12.2
2008-06-13 04:40:35 51°14.898 2°50.196 275.8 12.6 273 12.2
2008-06-13 04:40:39 51°14.898 2°50.175 276.2 12.5 272 12.3
2008-06-13 04:40:45 51°14.899 2°50.141 276.5 12.6 273 12.4
2008-06-13 04:40:50 51°14.899 2°50.114 276.9 12.6 271 12.3
2008-06-13 04:40:55 51°14.901 2°50.086 277 12.5 274 12.5
2008-06-13 04:40:59 51°14.901 2°50.063 277.2 12.5 272 12.4
2008-06-13 04:41:05 51°14.901 2°50.03 277.4 12.5 270 12.7
2008-06-13 04:41:10 51°14.902 2°50.002 277.1 12.6 272 12.8
2008-06-13 04:41:15 51°14.902 2°49.974 275.8 12.7 270 12.6
2008-06-13 04:41:19 51°14.902 2°49.952 276 12.6 271 12.4
2008-06-13 04:41:23 51°14.903 2°49.93 275.9 12.7 272 12.5
2008-06-13 04:41:30 51°14.903 2°49.891 275.7 12.5 271 12.3
2008-06-13 04:41:35 51°14.904 2°49.864 275.7 12.4 273 12.5
2008-06-13 04:41:39 51°14.904 2°49.842 276.6 12.4 270 12.8
2008-06-13 04:41:43 51°14.905 2°49.82 275.8 12.4 273 12.7
2008-06-13 04:41:50 51°14.904 2°49.781 276.2 12.3 270 12.4
2008-06-13 04:41:55 51°14.904 2°49.754 275.7 12.5 270 12.7
2008-06-13 04:41:59 51°14.905 2°49.732 275.6 12.4 272 12.6
2008-06-13 04:42:03 51°14.906 2°49.71 275.7 12.4 272 12.2
2008-06-13 04:42:10 51°14.906 2°49.672 276.3 12.5 273 12.3
2008-06-13 04:42:15 51°14.906 2°49.645 276.4 12.3 271 12.4
2008-06-13 04:42:19 51°14.907 2°49.623 275.7 12.4 271 12.8
2008-06-13 04:42:25 51°14.907 2°49.59 274.7 12.5 272 12.7
2008-06-13 04:42:30 51°14.908 2°49.563 275.8 12.4 272 12.6
2008-06-13 04:42:35 51°14.908 2°49.535 276.1 12.5 272 12.5
2008-06-13 04:42:39 51°14.909 2°49.513 275.7 12.4 273 12.5
2008-06-13 04:42:45 51°14.908 2°49.479 276.5 12.5 269 12.8
2008-06-13 04:42:50 51°14.911 2°49.453 275.8 12.4 277 13
2008-06-13 04:42:55 51°14.91 2°49.425 276.8 12.4 269 12.5
2008-06-13 04:42:59 51°14.91 2°49.403 275.8 12.3 272 12.1
2008-06-13 04:43:05 51°14.91 2°49.371 275.9 12.2 271 12.4
2008-06-13 04:43:10 51°14.911 2°49.344 274.8 12.2 273 12.3
2008-06-13 04:43:15 51°14.912 2°49.317 276.7 12.2 273 12.4
2008-06-13 04:43:19 51°14.912 2°49.295 277.1 12.2 270 12.4
2008-06-13 04:43:25 51°14.912 2°49.263 275.7 12.1 271 12.7
2008-06-13 04:43:30 51°14.912 2°49.236 276.7 12.2 271 12.6
2008-06-13 04:43:35 51°14.913 2°49.209 275.8 12.2 274 12.3
2008-06-13 04:43:39 51°14.913 2°49.187 276.8 12.3 272 12.5
2008-06-13 04:43:43 51°14.914 2°49.165 276.6 12.4 274 12.7
2008-06-13 04:43:50 51°14.915 2°49.127 276.9 12.4 272 13
2008-06-13 04:43:55 51°14.915 2°49.099 277.2 12.4 269 12.9
2008-06-13 04:43:59 51°14.916 2°49.077 276.1 12.5 273 13
2008-06-13 04:44:03 51°14.916 2°49.055 276.3 12.6 272 13.1
2008-06-13 04:44:10 51°14.918 2°49.017 276.3 12.3 274 12.7
2008-06-13 04:44:15 51°14.918 2°48.99 277.4 12.4 271 12.7
2008-06-13 04:44:19 51°14.919 2°48.968 275.9 12.4 276 12.6
2008-06-13 04:44:25 51°14.918 2°48.935 277.9 12.5 267 12.5
2008-06-13 04:44:30 51°14.92 2°48.908 275.9 12.4 274 12.6
2008-06-13 04:44:35 51°14.919 2°48.881 276.9 12.3 269 12.6
2008-06-13 04:44:39 51°14.921 2°48.859 276.3 12.4 274 12.7
2008-06-13 04:44:45 51°14.921 2°48.826 276.8 12.3 270 12.4
2008-06-13 04:44:50 51°14.921 2°48.799 276.4 12.3 273 12.4
2008-06-13 04:44:55 51°14.922 2°48.772 276.4 12.2 272 12.5
2008-06-13 04:44:59 51°14.922 2°48.75 277.2 12.3 272 12.7
2008-06-13 04:45:05 51°14.922 2°48.717 276.6 12.3 270 12.4
2008-06-13 04:45:10 51°14.923 2°48.69 276.2 12.3 272 12.2
2008-06-13 04:45:15 51°14.923 2°48.663 275.9 12.4 270 12.3
2008-06-13 04:45:19 51°14.924 2°48.641 275.1 12.3 274 12.5
2008-06-13 04:45:25 51°14.924 2°48.608 276.2 12.4 269 12.3
2008-06-13 04:45:30 51°14.924 2°48.581 275.5 12.3 270 12.5
2008-06-13 04:45:35 51°14.925 2°48.554 276.2 12.3 270 12.4
2008-06-13 04:45:39 51°14.925 2°48.532 275.7 12.3 270 12.8
2008-06-13 04:45:43 51°14.925 2°48.51 275.9 12.2 272 12.6
2008-06-13 04:45:50 51°14.925 2°48.472 275.1 12.4 269 12.2
2008-06-13 04:45:55 51°14.926 2°48.445 274.7 12.3 273 12.4
2008-06-13 04:45:59 51°14.925 2°48.423 275.7 12.2 271 12.3
2008-06-13 04:46:03 51°14.926 2°48.402 276.2 12.4 272 12.6
2008-06-13 04:46:10 51°14.928 2°48.364 276.1 12.1 275 12.4
2008-06-13 04:46:15 51°14.927 2°48.336 277.8 12.3 271 12.6
2008-06-13 04:46:19 51°14.928 2°48.315 276.1 12.3 272 12.3
2008-06-13 04:46:23 51°14.929 2°48.294 276.1 12.1 273 12.4
2008-06-13 04:46:30 51°14.929 2°48.256 276.3 12.4 272 12.6
2008-06-13 04:46:35 51°14.93 2°48.229 276.8 12.4 273 12.6
2008-06-13 04:46:39 51°14.931 2°48.207 277.1 12.2 273 12.7
2008-06-13 04:46:45 51°14.931 2°48.174 276.3 12.4 270 12.9
2008-06-13 04:46:50 51°14.932 2°48.148 276.3 12.1 274 13.2
2008-06-13 04:46:55 51°14.932 2°48.121 276.9 12.2 271 13.1
2008-06-13 04:46:59 51°14.934 2°48.099 276.1 12.2 277 13.2
2008-06-13 04:47:05 51°14.934 2°48.066 278.2 12.3 272 12.8
2008-06-13 04:47:10 51°14.935 2°48.039 277.2 12.3 272 12.6
2008-06-13 04:47:15 51°14.936 2°48.012 276.4 12.3 273 12.8
2008-06-13 04:47:19 51°14.936 2°47.991 276.6 12.2 271 12.9
2008-06-13 04:47:25 51°14.937 2°47.958 275.9 12.2 271 12.9
2008-06-13 04:47:30 51°14.938 2°47.931 276.2 12.2 273 13.4
2008-06-13 04:47:35 51°14.938 2°47.904 277.1 12.1 272 13.2
2008-06-13 04:47:39 51°14.939 2°47.882 276.2 12.3 272 13.1
2008-06-13 04:47:45 51°14.94 2°47.85 276.4 12.4 275 13.2
2008-06-13 04:47:50 51°14.94 2°47.823 277.2 12.2 270 13.1
2008-06-13 04:47:55 51°14.941 2°47.796 275.6 12.2 275 13
2008-06-13 04:47:59 51°14.941 2°47.774 276.1 12.4 270 13.1
2008-06-13 04:48:03 51°14.942 2°47.753 276.2 12.2 274 13.1
2008-06-13 04:48:10 51°14.943 2°47.715 276.5 12.2 271 12.9
2008-06-13 04:48:15 51°14.944 2°47.688 276 12.3 272 13.2
2008-06-13 04:48:19 51°14.945 2°47.666 276.2 12.1 271 13.1
2008-06-13 04:48:23 51°14.945 2°47.645 276.6 12.3 269 13.3
2008-06-13 04:48:29 51°14.945 2°47.612 275.3 12.1 274 12.7
2008-06-13 04:48:34 51°14.945 2°47.585 275.7 12.1 270 12.5
2008-06-13 04:48:39 51°14.946 2°47.558 275.8 12.2 273 12.7
2008-06-13 04:48:45 51°14.947 2°47.526 276.3 12.3 272 12.7
2008-06-13 04:48:50 51°14.947 2°47.499 276.7 12.2 270 12.8
2008-06-13 04:48:55 51°14.947 2°47.472 274.8 12.3 270 12.5
2008-06-13 04:48:59 51°14.948 2°47.45 274.5 12.3 274 12
2008-06-13 04:49:05 51°14.948 2°47.418 275.8 12.1 271 11.9
2008-06-13 04:49:10 51°14.949 2°47.391 275.7 12.1 273 12.1
2008-06-13 04:49:15 51°14.949 2°47.364 276 12 271 11.8
2008-06-13 04:49:19 51°14.95 2°47.343 276.6 12.2 272 12.1
2008-06-13 04:49:25 51°14.951 2°47.31 275.8 12.2 274 11.3
2008-06-13 04:49:30 51°14.951 2°47.283 277.2 12.2 270 11.3
2008-06-13 04:49:35 51°14.953 2°47.257 275.9 12.2 275 11.3
2008-06-13 04:49:40 51°14.953 2°47.23 276.2 12.2 272 11.2
2008-06-13 04:49:45 51°14.954 2°47.203 276.8 12.1 273 10.8
2008-06-13 04:49:50 51°14.954 2°47.176 276.6 12.2 271 11.1
2008-06-13 04:49:55 51°14.955 2°47.149 275.7 12.2 273 10.7
2008-06-13 04:49:59 51°14.955 2°47.127 277 12.2 272 10.5
2008-06-13 04:50:05 51°14.957 2°47.095 276.6 12.2 273 10.1
2008-06-13 04:50:10 51°14.956 2°47.068 276.3 12.1 269 9.9
2008-06-13 04:50:15 51°14.957 2°47.041 275.6 12.2 272 10.1
2008-06-13 04:50:19 51°14.956 2°47.02 276.4 12.2 267 9.5
2008-06-13 04:50:23 51°14.957 2°46.999 274.3 12 272 9.1
2008-06-13 04:50:30 51°14.958 2°46.962 274.8 12.2 272 8.7
2008-06-13 04:50:35 51°14.959 2°46.935 276.4 12.2 274 8.7
2008-06-13 04:50:39 51°14.959 2°46.914 277.2 12.2 271 9
2008-06-13 04:50:43 51°14.96 2°46.892 276.2 12.1 272 9.1
2008-06-13 04:50:50 51°14.96 2°46.855 275.5 12.3 272 9.4
2008-06-13 04:50:55 51°14.96 2°46.828 276.8 12.2 271 9.3
2008-06-13 04:50:59 51°14.961 2°46.806 275.6 12.1 273 9.3
2008-06-13 04:51:05 51°14.961 2°46.774 275.5 12 271 9.5
2008-06-13 04:51:10 51°14.962 2°46.747 276.4 12.1 273 9.8
2008-06-13 04:51:15 51°14.963 2°46.721 277.2 12 272 9.3
2008-06-13 04:51:19 51°14.963 2°46.7 275.7 12.1 269 9.4
2008-06-13 04:51:25 51°14.964 2°46.667 275.6 12.1 276 9.4
2008-06-13 04:51:30 51°14.963 2°46.641 277.1 12 269 9.3
2008-06-13 04:51:35 51°14.965 2°46.614 275.9 12 275 9.8
2008-06-13 04:51:40 51°14.964 2°46.587 277.2 12.2 268 9.5
2008-06-13 04:51:45 51°14.966 2°46.561 275.2 12 275 9.8
2008-06-13 04:51:50 51°14.966 2°46.533 276.4 12.2 269 9.8
2008-06-13 04:51:55 51°14.967 2°46.507 276.1 12.1 273 9.8
2008-06-13 04:52:00 51°14.967 2°46.48 276.7 12.1 270 10
2008-06-13 04:52:04 51°14.968 2°46.459 276 12.2 273 9.8
2008-06-13 04:52:10 51°14.969 2°46.427 276 12 273 9.6
2008-06-13 04:52:15 51°14.97 2°46.401 276.4 12 272 9.6
2008-06-13 04:52:19 51°14.97 2°46.379 276.7 12.1 272 9.8
2008-06-13 04:52:25 51°14.971 2°46.348 276.2 12 275 10
2008-06-13 04:52:30 51°14.972 2°46.321 277.5 11.9 272 10.4
2008-06-13 04:52:35 51°14.973 2°46.294 276.5 12.2 273 10.8
2008-06-13 04:52:40 51°14.974 2°46.268 276.8 12.1 274 10.7
2008-06-13 04:52:43 51°14.975 2°46.252 277.8 12 273 11
2008-06-13 04:52:50 51°14.976 2°46.214 276.4 12.1 275 11
2008-06-13 04:52:55 51°14.977 2°46.187 277.5 12.2 272 11.2
2008-06-13 04:53:00 51°14.978 2°46.161 277.1 12.2 272 11
2008-06-13 04:53:05 51°14.979 2°46.134 276.9 12 275 11.6
2008-06-13 04:53:10 51°14.978 2°46.107 277.2 12.2 267 11.5
2008-06-13 04:53:15 51°14.98 2°46.08 275 12.2 274 11.8
2008-06-13 04:53:20 51°14.978 2°46.053 276.7 12.4 266 11.3
2008-06-13 04:53:25 51°14.979 2°46.027 272.6 12 275 11.3
2008-06-13 04:53:30 51°14.978 2°46 275.3 12.1 266 11.7
2008-06-13 04:53:35 51°14.98 2°45.973 274.3 12.2 274 11.6
2008-06-13 04:53:40 51°14.979 2°45.946 275.8 12.3 270 11.9
2008-06-13 04:53:45 51°14.981 2°45.919 275.8 12.2 275 12.1
2008-06-13 04:53:50 51°14.981 2°45.892 277 12.4 268 12.3
2008-06-13 04:53:55 51°14.982 2°45.865 276 12.2 274 12.4
2008-06-13 04:54:00 51°14.982 2°45.838 276.1 12.2 271 12.7
2008-06-13 04:54:05 51°14.983 2°45.811 276.1 12.3 273 12.8
2008-06-13 04:54:10 51°14.984 2°45.784 275.6 12.3 272 13
2008-06-13 04:54:15 51°14.985 2°45.757 276.2 12.2 273 12.9
2008-06-13 04:54:20 51°14.985 2°45.73 276.3 12.2 273 13.3
2008-06-13 04:54:25 51°14.986 2°45.703 276.3 12.3 271 13.5
2008-06-13 04:54:30 51°14.986 2°45.676 276.4 12.3 271 13.6
2008-06-13 04:54:35 51°14.987 2°45.649 275.6 12.3 272 13.4
2008-06-13 04:54:40 51°14.988 2°45.622 275.6 12.4 273 13.6
2008-06-13 04:54:45 51°14.988 2°45.595 276 12.3 271 13.6
2008-06-13 04:54:50 51°14.989 2°45.568 275.7 12.3 272 14
2008-06-13 04:54:55 51°14.99 2°45.54 276.9 12.4 273 14.2
2008-06-13 04:55:00 51°14.991 2°45.513 276.6 12.3 272 14.2
2008-06-13 04:55:04 51°14.991 2°45.491 276.1 12.4 273 14.3
2008-06-13 04:55:10 51°14.992 2°45.459 276.9 12.3 273 14.3
2008-06-13 04:55:15 51°14.993 2°45.432 277.2 12.3 271 14.5
2008-06-13 04:55:20 51°14.994 2°45.405 276.2 12.2 274 14.2
2008-06-13 04:55:24 51°14.994 2°45.384 278 12.1 269 14.5
2008-06-13 04:55:30 51°14.996 2°45.351 274.8 12.2 278 14.7
2008-06-13 04:55:35 51°14.995 2°45.325 277.6 12.1 270 14.6
2008-06-13 04:55:40 51°14.996 2°45.298 276.3 12.4 270 14.6
2008-06-13 04:55:45 51°14.997 2°45.271 274.7 12.2 276 14.7
2008-06-13 04:55:50 51°14.997 2°45.244 277.1 12.2 271 14.9
2008-06-13 04:55:55 51°14.998 2°45.217 276.6 12.2 273 15.2
2008-06-13 04:56:00 51°14.998 2°45.19 276.9 12.2 271 15.3
2008-06-13 04:56:05 51°14.999 2°45.163 275.2 12.2 273 15.7
2008-06-13 04:56:10 51°15 2°45.135 276.3 12.4 272 15.6
2008-06-13 04:56:15 51°15 2°45.108 276.2 12.4 271 15.6
2008-06-13 04:56:20 51°15 2°45.08 275.5 12.5 270 15.6
2008-06-13 04:56:25 51°15.002 2°45.053 275.5 12.4 274 16
2008-06-13 04:56:30 51°15.003 2°45.026 276.3 12.4 275 15.8
2008-06-13 04:56:35 51°15.003 2°44.998 277.3 12.5 270 15.8
2008-06-13 04:56:40 51°15.005 2°44.971 276.4 12.3 277 16
2008-06-13 04:56:45 51°15.005 2°44.944 277.2 12.4 269 16.1
2008-06-13 04:56:50 51°15.007 2°44.916 276 12.3 275 16.5
2008-06-13 04:56:55 51°15.007 2°44.889 277.9 12.4 271 16.5
2008-06-13 04:57:00 51°15.009 2°44.862 276.4 12.3 274 16.7
2008-06-13 04:57:05 51°15.009 2°44.835 277.2 12.2 272 16.7
2008-06-13 04:57:10 51°15.01 2°44.808 276.5 12.2 272 16.9
2008-06-13 04:57:15 51°15.012 2°44.781 275.7 12.2 276 16.8
2008-06-13 04:57:19 51°15.012 2°44.759 278 12.3 272 16.6
2008-06-13 04:57:24 51°15.013 2°44.732 278.1 12.4 274 16.7
2008-06-13 04:57:30 51°15.015 2°44.699 277.9 12.4 275 16.7
2008-06-13 04:57:35 51°15.016 2°44.672 278.1 12.2 275 16.6
2008-06-13 04:57:40 51°15.017 2°44.645 278.8 12.2 275 16.8
2008-06-13 04:57:43 51°15.018 2°44.629 279.1 12.4 275 17
2008-06-13 04:57:50 51°15.021 2°44.591 278.9 12.3 277 17
2008-06-13 04:57:55 51°15.022 2°44.564 279.2 12.2 275 16.9
2008-06-13 04:58:00 51°15.025 2°44.537 279.6 12.3 278 17.1
2008-06-13 04:58:05 51°15.025 2°44.51 280.3 12.4 272 17.2
2008-06-13 04:58:10 51°15.028 2°44.483 278.6 12.3 278 17.5
2008-06-13 04:58:15 51°15.029 2°44.456 279.4 12.3 276 17.5
2008-06-13 04:58:19 51°15.031 2°44.435 279.3 12.3 276 17.6
2008-06-13 04:58:25 51°15.033 2°44.402 279.4 12.3 276 17.7
2008-06-13 04:58:30 51°15.034 2°44.375 279.3 12.3 277 17.7
2008-06-13 04:58:35 51°15.036 2°44.348 279.3 12.4 273 17.9
2008-06-13 04:58:39 51°15.037 2°44.327 278.6 12.2 277 17.7
2008-06-13 04:58:45 51°15.038 2°44.295 279.3 12 274 17.9
2008-06-13 04:58:50 51°15.041 2°44.269 278.6 12 278 18.2
2008-06-13 04:58:55 51°15.042 2°44.242 280.1 12 275 17.9
2008-06-13 04:59:00 51°15.043 2°44.215 279.8 12.2 275 18.1
2008-06-13 04:59:05 51°15.045 2°44.189 278.8 12.1 277 18.2
2008-06-13 04:59:10 51°15.047 2°44.162 279.9 12.2 274 18.4
2008-06-13 04:59:15 51°15.049 2°44.135 279 12.1 277 18.6
2008-06-13 04:59:19 51°15.05 2°44.114 279.7 12.2 275 18.7
2008-06-13 04:59:25 51°15.052 2°44.082 279.8 12.2 277 18.6
2008-06-13 04:59:30 51°15.054 2°44.055 280.3 12.2 275 18.8
2008-06-13 04:59:35 51°15.056 2°44.028 279.4 12.2 277 18.5
2008-06-13 04:59:40 51°15.056 2°44.001 280 12.1 275 18.2
2008-06-13 04:59:43 51°15.057 2°43.986 279.4 12.1 277 18
2008-06-13 04:59:50 51°15.06 2°43.949 279.9 12 278 17.7
2008-06-13 04:59:55 51°15.062 2°43.923 280.9 11.9 277 17.9
2008-06-13 05:00:00 51°15.065 2°43.897 281.8 12 279 17.8
2008-06-13 05:00:05 51°15.068 2°43.871 282.3 12 280 17.5
2008-06-13 05:00:10 51°15.071 2°43.845 283.3 12 279 17.5
2008-06-13 05:00:15 51°15.073 2°43.819 283.8 12 279 17.4
2008-06-13 05:00:19 51°15.076 2°43.798 282.7 11.9 282 17.5
2008-06-13 05:00:25 51°15.079 2°43.767 284.6 11.7 280 17.3
2008-06-13 05:00:30 51°15.083 2°43.741 284.4 12 284 17.2
2008-06-13 05:00:35 51°15.087 2°43.716 286.1 11.9 283 16.7
2008-06-13 05:00:40 51°15.09 2°43.689 287.8 11.9 283 16.5
2008-06-13 05:00:45 51°15.095 2°43.664 287.6 12 286 16.2
2008-06-13 05:00:50 51°15.099 2°43.638 288.9 12 285 15.9
2008-06-13 05:00:55 51°15.103 2°43.613 289.5 11.9 284 15.7
2008-06-13 05:00:59 51°15.107 2°43.593 288.6 11.9 285 15.4
2008-06-13 05:01:05 51°15.111 2°43.561 288.8 12.3 283 15.2
2008-06-13 05:01:10 51°15.116 2°43.536 288.7 11.9 285 14.8
2008-06-13 05:01:15 51°15.119 2°43.511 288.6 11.8 282 14.5
2008-06-13 05:01:19 51°15.122 2°43.49 287.4 12.2 284 14.3
2008-06-13 05:01:25 51°15.127 2°43.459 287.6 12 284 14.1
2008-06-13 05:01:30 51°15.13 2°43.433 288 11.9 282 13.7
2008-06-13 05:01:35 51°15.134 2°43.406 287 12.3 283 13.8
2008-06-13 05:01:39 51°15.137 2°43.386 287.1 12.1 284 13.8
2008-06-13 05:01:43 51°15.14 2°43.365 287.9 11.8 281 13.6
2008-06-13 05:01:50 51°15.146 2°43.33 286.4 12 285 13.8
2008-06-13 05:01:55 51°15.148 2°43.303 288.1 12.2 279 13.9
2008-06-13 05:01:59 51°15.152 2°43.283 287.3 11.8 284 13.8
2008-06-13 05:02:05 51°15.155 2°43.252 287.7 11.8 280 13.7
2008-06-13 05:02:10 51°15.159 2°43.226 285.9 12 283 13.4
2008-06-13 05:02:15 51°15.163 2°43.2 286.6 12 281 13.6
2008-06-13 05:02:20 51°15.167 2°43.175 287 12 283 13.5
2008-06-13 05:02:25 51°15.17 2°43.149 286.5 12 281 13.5
2008-06-13 05:02:30 51°15.173 2°43.123 286.8 11.8 282 13.6
2008-06-13 05:02:35 51°15.176 2°43.097 287.2 11.8 280 13.9
2008-06-13 05:02:40 51°15.179 2°43.072 286 11.9 281 13.7
2008-06-13 05:02:45 51°15.183 2°43.046 285.7 11.9 283 13.7
2008-06-13 05:02:50 51°15.186 2°43.021 286.7 11.7 283 13.9
2008-06-13 05:02:55 51°15.19 2°42.995 286.9 11.9 283 14
2008-06-13 05:03:00 51°15.193 2°42.969 286.9 12 281 13.9
2008-06-13 05:03:05 51°15.197 2°42.943 286.5 12 282 14
2008-06-13 05:03:10 51°15.201 2°42.918 286.7 11.8 283 13.7
2008-06-13 05:03:15 51°15.204 2°42.893 286.9 11.8 282 13.8
2008-06-13 05:03:20 51°15.207 2°42.867 286.2 11.9 282 13.7
2008-06-13 05:03:25 51°15.211 2°42.842 287.2 11.9 282 13.9
2008-06-13 05:03:30 51°15.216 2°42.818 287.7 11.6 286 13.5
2008-06-13 05:03:35 51°15.219 2°42.793 287.9 11.6 286 13.3
2008-06-13 05:03:39 51°15.222 2°42.772 288.4 11.9 282 13.4
2008-06-13 05:03:45 51°15.227 2°42.741 288 11.8 285 13.4
2008-06-13 05:03:50 51°15.231 2°42.717 288.5 11.7 284 13.5
2008-06-13 05:03:55 51°15.236 2°42.692 288 11.8 285 13.5
2008-06-13 05:04:00 51°15.24 2°42.666 289.1 11.8 284 13.7
2008-06-13 05:04:04 51°15.243 2°42.646 288.7 11.6 286 13.1
2008-06-13 05:04:10 51°15.247 2°42.616 289.2 11.6 283 12.4
2008-06-13 05:04:15 51°15.252 2°42.591 288.3 11.8 286 12.7
2008-06-13 05:04:20 51°15.256 2°42.566 288.8 11.8 286 13.4
2008-06-13 05:04:25 51°15.259 2°42.541 289.5 11.7 284 13.4
2008-06-13 05:04:30 51°15.263 2°42.515 288.7 12 283 13.6
2008-06-13 05:04:35 51°15.268 2°42.489 287.6 12 284 13.5
2008-06-13 05:04:40 51°15.271 2°42.464 288 11.8 283 13.6
2008-06-13 05:04:45 51°15.275 2°42.439 287.7 11.7 283 13.4
2008-06-13 05:04:50 51°15.279 2°42.414 287.4 11.7 284 13
2008-06-13 05:04:55 51°15.284 2°42.389 288.1 11.7 287 12.6
2008-06-13 05:05:00 51°15.287 2°42.364 289.6 11.5 282 11.8
2008-06-13 05:05:05 51°15.291 2°42.339 288.2 11.7 283 11.5
2008-06-13 05:05:10 51°15.294 2°42.314 287.8 11.7 284 10.5
2008-06-13 05:05:15 51°15.298 2°42.29 288.1 11.4 284 9.4
2008-06-13 05:05:20 51°15.302 2°42.265 287.4 11.4 284 11.7
2008-06-13 05:05:25 51°15.307 2°42.24 288.2 11.5 288 12
2008-06-13 05:05:30 51°15.311 2°42.215 290.8 11.7 287 11.8
2008-06-13 05:05:35 51°15.317 2°42.191 290.7 11.5 288 11.4
2008-06-13 05:05:39 51°15.32 2°42.171 291.8 11.7 286 10.3
2008-06-13 05:05:45 51°15.326 2°42.141 291.9 11.7 287 10.7
2008-06-13 05:05:50 51°15.332 2°42.117 292.1 11.7 291 11.2
2008-06-13 05:05:55 51°15.336 2°42.092 293.3 11.6 289 11.2
2008-06-13 05:06:00 51°15.342 2°42.068 293.2 11.8 289 10.6
2008-06-13 05:06:04 51°15.346 2°42.048 293.1 11.8 289 10.6
2008-06-13 05:06:10 51°15.352 2°42.017 292.8 11.9 290 10.4
2008-06-13 05:06:15 51°15.358 2°41.993 292.8 11.7 289 10.8
2008-06-13 05:06:20 51°15.364 2°41.969 293.6 11.7 291 11
2008-06-13 05:06:24 51°15.369 2°41.949 294.7 11.8 293 11.1
2008-06-13 05:06:30 51°15.376 2°41.92 295.9 11.8 294 10.6
2008-06-13 05:06:35 51°15.382 2°41.897 296.7 11.8 292 10.6
2008-06-13 05:06:40 51°15.39 2°41.873 296.9 11.7 296 10.7
2008-06-13 05:06:45 51°15.396 2°41.849 298.1 11.8 294 10.7
2008-06-13 05:06:50 51°15.404 2°41.826 298.3 11.6 297 10.9
2008-06-13 05:06:55 51°15.41 2°41.802 299.6 11.6 296 10.8
2008-06-13 05:07:00 51°15.418 2°41.779 299.5 11.8 298 10.9
2008-06-13 05:07:05 51°15.426 2°41.756 301.1 11.9 300 10.7
2008-06-13 05:07:10 51°15.433 2°41.734 303.3 11.6 297 10.7
2008-06-13 05:07:15 51°15.441 2°41.712 302.8 11.5 300 11
2008-06-13 05:07:19 51°15.448 2°41.694 303.7 11.9 301 10.9
2008-06-13 05:07:25 51°15.459 2°41.668 304.8 11.7 302 10.5
2008-06-13 05:07:30 51°15.466 2°41.646 305.9 11.5 300 10.9
2008-06-13 05:07:35 51°15.475 2°41.624 305.5 11.6 300 11
2008-06-13 05:07:39 51°15.481 2°41.607 304.5 11.7 302 11.3
2008-06-13 05:07:45 51°15.491 2°41.58 305.8 11.6 299 11
2008-06-13 05:07:50 51°15.499 2°41.559 305.3 11.2 300 10.7
2008-06-13 05:07:55 51°15.508 2°41.537 304.4 11.6 301 11.2
2008-06-13 05:07:59 51°15.515 2°41.52 304.7 11.4 302 11.1
2008-06-13 05:08:05 51°15.524 2°41.493 306.4 11.4 299 11.3
2008-06-13 05:08:10 51°15.532 2°41.471 303.7 11.6 301 11
2008-06-13 05:08:15 51°15.539 2°41.448 303.3 11.7 298 10.9
2008-06-13 05:08:19 51°15.546 2°41.431 303.3 11.3 300 11.1
2008-06-13 05:08:25 51°15.554 2°41.403 303.6 11.6 296 11.2
2008-06-13 05:08:30 51°15.563 2°41.381 302.3 11.7 301 11.1
2008-06-13 05:08:35 51°15.569 2°41.357 303.1 11.8 293 11.3
2008-06-13 05:08:40 51°15.577 2°41.335 301.5 11.5 300 11.6
2008-06-13 05:08:45 51°15.583 2°41.312 301.8 11.6 292 11.5
2008-06-13 05:08:50 51°15.59 2°41.29 299.7 11.3 297 10.8
2008-06-13 05:08:55 51°15.597 2°41.268 299.8 11.1 296 11.3
2008-06-13 05:09:00 51°15.604 2°41.246 300.8 11.1 298 11.4
2008-06-13 05:09:04 51°15.61 2°41.228 301.8 11.3 297 11.7
2008-06-13 05:09:10 51°15.618 2°41.2 300.4 11.5 297 11.9
2008-06-13 05:09:15 51°15.626 2°41.177 300.5 11.6 296 12.3
2008-06-13 05:09:19 51°15.631 2°41.159 301 11.6 294 12.4
2008-06-13 05:09:25 51°15.639 2°41.132 299.5 11.6 296 11.7
2008-06-13 05:09:30 51°15.647 2°41.109 299.7 11.6 297 11.9
2008-06-13 05:09:35 51°15.654 2°41.087 300.7 11.5 297 12.2
2008-06-13 05:09:39 51°15.659 2°41.068 300.9 11.4 295 12.4
2008-06-13 05:09:45 51°15.667 2°41.04 300.4 11.5 294 13.3
2008-06-13 05:09:50 51°15.675 2°41.017 300.2 11.5 296 12.8
2008-06-13 05:09:55 51°15.681 2°40.995 300.2 11.3 296 12.5
2008-06-13 05:09:59 51°15.687 2°40.977 300.4 11.3 296 12.7
2008-06-13 05:10:05 51°15.695 2°40.949 301.4 11.4 295 13.3
2008-06-13 05:10:10 51°15.702 2°40.927 300.6 11.4 299 13.4
2008-06-13 05:10:15 51°15.709 2°40.905 301.4 11.4 297 12.9
2008-06-13 05:10:19 51°15.715 2°40.886 302 11.5 297 14
2008-06-13 05:10:25 51°15.724 2°40.858 301.9 11.7 298 14.3
2008-06-13 05:10:30 51°15.731 2°40.835 301.6 11.8 297 14.3
2008-06-13 05:10:35 51°15.739 2°40.812 301.3 11.6 297 14.4
2008-06-13 05:10:40 51°15.746 2°40.788 302 11.8 295 14.9
2008-06-13 05:10:45 51°15.753 2°40.765 301.4 11.8 296 14.7
2008-06-13 05:10:50 51°15.76 2°40.741 300.4 11.9 296 14.9
2008-06-13 05:10:55 51°15.767 2°40.718 300.6 11.9 296 15.4
2008-06-13 05:11:00 51°15.774 2°40.694 301.1 11.8 295 15.7
2008-06-13 05:11:05 51°15.781 2°40.67 300 11.9 295 15.9
2008-06-13 05:11:10 51°15.789 2°40.647 300.2 11.9 296 16.1
2008-06-13 05:11:15 51°15.796 2°40.623 300.9 11.9 296 16.6
2008-06-13 05:11:20 51°15.803 2°40.599 300.4 11.9 294 16.7
2008-06-13 05:11:25 51°15.81 2°40.576 299.8 11.9 296 17
2008-06-13 05:11:30 51°15.818 2°40.552 300.4 12 296 17.5
2008-06-13 05:11:35 51°15.825 2°40.529 300.9 11.8 297 17.1
2008-06-13 05:11:40 51°15.832 2°40.506 301 11.7 297 17.4
2008-06-13 05:11:45 51°15.84 2°40.482 301.6 11.7 297 17.9
2008-06-13 05:11:50 51°15.847 2°40.459 301.6 11.8 298 17.9
2008-06-13 05:11:55 51°15.854 2°40.434 302.5 11.9 296 18.2
2008-06-13 05:12:00 51°15.861 2°40.411 301.1 12 296 18.1
2008-06-13 05:12:05 51°15.868 2°40.388 301 11.8 296 18.3
2008-06-13 05:12:10 51°15.876 2°40.365 301.4 11.7 296 18.6
2008-06-13 05:12:15 51°15.883 2°40.341 301.8 11.6 296 19
2008-06-13 05:12:19 51°15.889 2°40.323 302 11.7 297 19.4
2008-06-13 05:12:25 51°15.897 2°40.294 301.6 11.9 296 19.2
2008-06-13 05:12:30 51°15.905 2°40.271 301.8 11.8 297 19.3
2008-06-13 05:12:35 51°15.912 2°40.247 301.9 11.9 296 19.7
2008-06-13 05:12:40 51°15.919 2°40.224 301.4 11.9 297 19.8
2008-06-13 05:12:45 51°15.926 2°40.199 301.1 11.9 295 20
2008-06-13 05:12:50 51°15.933 2°40.175 301.1 12.1 295 20.2
2008-06-13 05:12:55 51°15.94 2°40.151 300.5 12.1 295 20
2008-06-13 05:13:00 51°15.947 2°40.127 301 11.8 296 20.3
2008-06-13 05:13:05 51°15.954 2°40.103 301.1 11.8 294 20.8
2008-06-13 05:13:10 51°15.961 2°40.08 300.5 11.9 295 20.6
2008-06-13 05:13:15 51°15.969 2°40.057 300.8 12 297 20.4
2008-06-13 05:13:20 51°15.976 2°40.032 301.8 12.1 295 20.5
2008-06-13 05:13:25 51°15.984 2°40.008 301.5 12.1 295 20.6
2008-06-13 05:13:30 51°15.99 2°39.984 300.6 12.1 295 20.6
2008-06-13 05:13:35 51°15.998 2°39.959 299.9 12.1 295 20.9
2008-06-13 05:13:39 51°16.003 2°39.94 300.4 12.2 294 20.8
2008-06-13 05:13:45 51°16.012 2°39.911 300.5 12.2 296 20.7
2008-06-13 05:13:50 51°16.019 2°39.887 301.1 12 295 20.6
2008-06-13 05:13:55 51°16.027 2°39.864 301.4 12.1 297 21
2008-06-13 05:13:59 51°16.033 2°39.844 301.4 12 296 20.8
2008-06-13 05:14:05 51°16.042 2°39.816 301.5 12 298 20.6
2008-06-13 05:14:10 51°16.049 2°39.792 302.1 11.9 296 20.2
2008-06-13 05:14:15 51°16.056 2°39.768 302.1 12 296 20.6
2008-06-13 05:14:19 51°16.062 2°39.749 301.8 12 297 20.7
2008-06-13 05:14:25 51°16.071 2°39.72 301.7 11.9 296 20.8
2008-06-13 05:14:30 51°16.078 2°39.696 301.1 11.9 295 20.9
2008-06-13 05:14:35 51°16.085 2°39.672 301.2 11.9 296 20.8
2008-06-13 05:14:39 51°16.091 2°39.654 301.3 11.9 295 20.6
2008-06-13 05:14:45 51°16.1 2°39.625 301.1 12 295 20.6
2008-06-13 05:14:50 51°16.107 2°39.601 301.1 11.9 296 20.4
2008-06-13 05:14:55 51°16.114 2°39.578 301.5 11.8 297 20.3
2008-06-13 05:14:59 51°16.12 2°39.558 301.6 11.9 295 20.4
2008-06-13 05:15:05 51°16.129 2°39.531 301.3 11.8 297 20
2008-06-13 05:15:10 51°16.136 2°39.506 301.9 12 294 20.1
2008-06-13 05:15:15 51°16.143 2°39.483 302.2 12 296 20.1
2008-06-13 05:15:19 51°16.149 2°39.464 301.9 12 295 19.5
2008-06-13 05:15:25 51°16.158 2°39.436 301.2 11.9 297 19.3
2008-06-13 05:15:30 51°16.164 2°39.412 301.7 11.8 295 19.1
2008-06-13 05:15:35 51°16.172 2°39.388 301.4 11.9 295 19.4
2008-06-13 05:15:39 51°16.177 2°39.369 301.5 11.9 294 19.2
2008-06-13 05:15:43 51°16.183 2°39.35 301.1 11.9 296 18.9
2008-06-13 05:15:50 51°16.193 2°39.317 301.1 11.9 295 18.8
2008-06-13 05:15:55 51°16.2 2°39.292 301.1 12 295 18.6
2008-06-13 05:15:59 51°16.206 2°39.273 301.6 12 297 18.3
2008-06-13 05:16:05 51°16.214 2°39.244 301.4 12 295 17.7
2008-06-13 05:16:10 51°16.221 2°39.22 301.1 11.9 296 17.8
2008-06-13 05:16:14 51°16.227 2°39.201 301.1 12 295 17.4
2008-06-13 05:16:19 51°16.234 2°39.177 301 12 296 17.1
2008-06-13 05:16:25 51°16.243 2°39.148 301.5 12.1 295 16.8
2008-06-13 05:16:30 51°16.25 2°39.124 301.5 12 295 16.1
2008-06-13 05:16:35 51°16.258 2°39.1 301.6 12 297 16.4
2008-06-13 05:16:40 51°16.265 2°39.076 301.6 12.1 295 15.2
2008-06-13 05:16:45 51°16.272 2°39.052 301.1 12 296 15
2008-06-13 05:16:50 51°16.28 2°39.028 301.3 12 296 14.5
2008-06-13 05:16:55 51°16.287 2°39.004 301.8 12.1 296 14.4
2008-06-13 05:16:59 51°16.294 2°38.986 302.6 12 299 13.9
2008-06-13 05:17:05 51°16.303 2°38.958 302.8 12 297 13.9
2008-06-13 05:17:10 51°16.31 2°38.934 302.4 11.9 298 13.5
2008-06-13 05:17:15 51°16.318 2°38.911 302.8 11.8 297 13.1
2008-06-13 05:17:19 51°16.324 2°38.892 303.1 11.8 298 12.8
2008-06-13 05:17:25 51°16.333 2°38.865 303.2 11.7 297 12.7
2008-06-13 05:17:30 51°16.341 2°38.842 303.2 11.6 298 12.6
2008-06-13 05:17:35 51°16.348 2°38.819 302.8 11.5 299 11.8
2008-06-13 05:17:39 51°16.353 2°38.801 302.9 11.3 297 11.5
2008-06-13 05:17:43 51°16.359 2°38.782 302.3 11.4 297 11.7
2008-06-13 05:17:50 51°16.369 2°38.75 302.2 11.7 297 11.6
2008-06-13 05:17:55 51°16.377 2°38.729 301.2 11.3 298 11.1
2008-06-13 05:17:59 51°16.383 2°38.71 303 11.5 297 11.2
2008-06-13 05:18:05 51°16.392 2°38.683 301.7 11.6 298 11.3
2008-06-13 05:18:10 51°16.399 2°38.66 301.3 11.5 294 11.1
2008-06-13 05:18:15 51°16.407 2°38.637 300.9 11.6 300 11.1
2008-06-13 05:18:19 51°16.413 2°38.621 302.1 11.4 298 10.9
2008-06-13 05:18:25 51°16.421 2°38.592 302.2 11.6 295 10.4
2008-06-13 05:18:30 51°16.429 2°38.571 300.4 11.3 301 10.2
2008-06-13 05:18:35 51°16.436 2°38.548 301.8 11.3 298 10
2008-06-13 05:18:39 51°16.443 2°38.532 301.5 11.1 305 10.2
2008-06-13 05:18:45 51°16.45 2°38.502 304.7 11.6 290 9.6
2008-06-13 05:18:50 51°16.46 2°38.483 300.4 11.3 307 9.9
2008-06-13 05:18:55 51°16.465 2°38.459 305.8 11.5 289 9
2008-06-13 05:18:59 51°16.473 2°38.444 299.5 11.1 305 9.4
2008-06-13 05:19:05 51°16.481 2°38.417 302.4 11.2 297 9.3
2008-06-13 05:19:10 51°16.489 2°38.395 302.7 11.3 302 9.6
2008-06-13 05:19:15 51°16.497 2°38.373 303.3 11.4 298 9.8
2008-06-13 05:19:19 51°16.504 2°38.356 302.9 11.5 304 9.6
2008-06-13 05:19:25 51°16.512 2°38.329 304.2 11.4 298 9.2
2008-06-13 05:19:30 51°16.521 2°38.308 303.3 11.4 302 10
2008-06-13 05:19:35 51°16.529 2°38.286 304 11.5 299 10.1
2008-06-13 05:19:39 51°16.535 2°38.268 304.2 11.6 299 9.5
2008-06-13 05:19:45 51°16.546 2°38.243 303.5 11.4 304 9.4
2008-06-13 05:19:50 51°16.553 2°38.22 305 11.7 296 9.5
2008-06-13 05:19:55 51°16.562 2°38.2 303.3 11.1 305 8.5
2008-06-13 05:19:59 51°16.567 2°38.182 305.4 11 297 9.2
2008-06-13 05:20:05 51°16.577 2°38.157 303.3 11.2 303 9.8
2008-06-13 05:20:10 51°16.586 2°38.136 304.3 11.5 302 9.2
2008-06-13 05:20:15 51°16.594 2°38.114 305.3 11.6 301 11.8
2008-06-13 05:20:19 51°16.6 2°38.097 304.7 11.6 301 13.2
2008-06-13 05:20:25 51°16.611 2°38.071 304.5 11.4 304 14.6
2008-06-13 05:20:30 51°16.619 2°38.051 305.5 11 302 15.5
2008-06-13 05:20:35 51°16.626 2°38.03 305.6 10.7 300 16.5
2008-06-13 05:20:39 51°16.632 2°38.014 305 10.6 301 17.4
2008-06-13 05:20:45 51°16.641 2°37.99 304.5 10.5 302 18.4
2008-06-13 05:20:50 51°16.649 2°37.97 305 10.5 302 19.5
2008-06-13 05:20:55 51°16.657 2°37.95 304.8 10.5 302 20.4
2008-06-13 05:20:59 51°16.662 2°37.935 304.7 10.3 300 21.6
2008-06-13 05:21:05 51°16.671 2°37.911 303.9 10.3 300 21.3
2008-06-13 05:21:10 51°16.678 2°37.891 303.9 10.3 299 22.6
2008-06-13 05:21:15 51°16.685 2°37.872 303.7 10.2 299 22.9
2008-06-13 05:21:19 51°16.69 2°37.856 304 10.3 299 23.8
2008-06-13 05:21:25 51°16.699 2°37.833 303.5 10.3 301 24.3
2008-06-13 05:21:30 51°16.706 2°37.813 304 10.2 301 24.9
2008-06-13 05:21:35 51°16.713 2°37.794 304.7 10.2 300 24.6
2008-06-13 05:21:39 51°16.719 2°37.778 304 10.3 301 25.3
2008-06-13 05:21:45 51°16.727 2°37.754 304.4 10.1 298 25.6
2008-06-13 05:21:50 51°16.734 2°37.734 304 10.3 299 25.8
2008-06-13 05:21:55 51°16.741 2°37.715 303.5 10.1 299 25.9
2008-06-13 05:21:59 51°16.747 2°37.7 303.3 10.1 300 26.6
2008-06-13 05:22:05 51°16.755 2°37.677 304 10.2 300 26.6
2008-06-13 05:22:10 51°16.761 2°37.658 304.4 9.6 299 27
2008-06-13 05:22:15 51°16.768 2°37.641 304.5 9 300 27.1
2008-06-13 05:22:19 51°16.773 2°37.628 304.8 8.6 299 27.2
2008-06-13 05:22:23 51°16.777 2°37.615 304.7 8.2 302 27
2008-06-13 05:22:30 51°16.785 2°37.595 305.7 7.7 304 26.7
2008-06-13 05:22:35 51°16.792 2°37.583 308.6 7.3 308 26.8
2008-06-13 05:22:39 51°16.797 2°37.574 312.2 6.9 312 26.9
2008-06-13 05:22:45 51°16.805 2°37.562 316.3 6.4 316 26.9
2008-06-13 05:22:50 51°16.812 2°37.555 321.2 5.9 326 26.9
2008-06-13 05:22:55 51°16.818 2°37.549 327.8 5.2 332 26.6
2008-06-13 05:22:59 51°16.823 2°37.545 335.2 4.9 336 26.6
2008-06-13 05:23:05 51°16.83 2°37.543 342.7 4.4 345 26.9
2008-06-13 05:23:10 51°16.836 2°37.541 349.4 4.1 350 27
2008-06-13 05:23:15 51°16.841 2°37.541 356.3 3.7 358 27.3
2008-06-13 05:23:19 51°16.845 2°37.541 1.9 3.8 1 27.3
2008-06-13 05:23:25 51°16.852 2°37.542 5.3 3.8 4 27.2
2008-06-13 05:23:30 51°16.857 2°37.543 7.7 3.9 8 27.3
2008-06-13 05:23:35 51°16.863 2°37.545 9.2 3.9 8 27.5
2008-06-13 05:23:39 51°16.867 2°37.545 9.8 4 8 27.5
2008-06-13 05:23:45 51°16.874 2°37.546 9.8 4 5 27.7
2008-06-13 05:23:50 51°16.879 2°37.547 7.9 4 2 27.7
2008-06-13 05:23:55 51°16.885 2°37.546 4.8 4.1 356 27.9
2008-06-13 05:23:59 51°16.889 2°37.546 1.2 4.1 356 28
2008-06-13 05:24:05 51°16.896 2°37.544 357.8 4.1 352 28.1
2008-06-13 05:24:10 51°16.902 2°37.543 355 4.2 352 28.1
2008-06-13 05:24:15 51°16.908 2°37.542 353.2 4.2 350 28
2008-06-13 05:24:19 51°16.912 2°37.54 351.6 4.2 346 28.1
2008-06-13 05:24:23 51°16.917 2°37.539 350.5 4.2 346 28.1
2008-06-13 05:24:30 51°16.925 2°37.535 349.3 4.2 347 28.2
2008-06-13 05:24:35 51°16.93 2°37.533 349 4.3 347 28
2008-06-13 05:24:39 51°16.935 2°37.532 349.7 4.3 348 28.1
2008-06-13 05:24:45 51°16.942 2°37.529 350.2 4.4 349 28.1
2008-06-13 05:24:50 51°16.948 2°37.528 351.2 4.3 352 28.1
2008-06-13 05:24:55 51°16.954 2°37.526 352.4 4.3 352 28.3
2008-06-13 05:24:59 51°16.959 2°37.526 354.1 4 356 28.4
2008-06-13 05:25:05 51°16.965 2°37.526 355.6 3.7 359 28.1
2008-06-13 05:25:10 51°16.97 2°37.526 357.4 3.5 1 27.9
2008-06-13 05:25:15 51°16.974 2°37.526 0.5 3.2 4 27.7
2008-06-13 05:25:19 51°16.977 2°37.527 2.4 3.1 6 27.9
2008-06-13 05:25:25 51°16.982 2°37.527 4.4 2.9 5 28
2008-06-13 05:25:30 51°16.986 2°37.529 6.9 2.8 13 28.1
2008-06-13 05:25:35 51°16.989 2°37.53 8.5 2.7 15 28
2008-06-13 05:25:39 51°16.992 2°37.531 11.1 2.7 14 28
2008-06-13 05:25:45 51°16.997 2°37.534 13.5 2.8 18 28
2008-06-13 05:25:50 51°17 2°37.536 14.2 2.7 19 27.9
2008-06-13 05:25:55 51°17.004 2°37.538 15.3 2.6 24 28
2008-06-13 05:25:59 51°17.006 2°37.539 16.1 2.6 19 27.9
2008-06-13 05:26:05 51°17.01 2°37.542 16.7 2.5 21 28
2008-06-13 05:26:09 51°17.012 2°37.543 16.5 2.4 20 28.3
2008-06-13 05:26:15 51°17.016 2°37.545 16.2 2.3 18 28.4
2008-06-13 05:26:19 51°17.019 2°37.546 15.6 2.4 20 28.4
2008-06-13 05:26:25 51°17.022 2°37.548 15.1 2.4 18 28.5
2008-06-13 05:26:30 51°17.025 2°37.55 14.7 2.4 20 28.4
2008-06-13 05:26:35 51°17.028 2°37.552 14.6 2.2 21 28.4
2008-06-13 05:26:39 51°17.031 2°37.553 14.6 2.2 17 28.5
2008-06-13 05:26:43 51°17.033 2°37.555 14.5 2 21 28.3
2008-06-13 05:26:50 51°17.036 2°37.557 14.3 1.7 25 27.9
2008-06-13 05:26:55 51°17.038 2°37.558 14.8 1.6 27 27.6
2008-06-13 05:26:59 51°17.04 2°37.559 16.4 1.7 22 27.4
2008-06-13 05:27:05 51°17.042 2°37.561 16.5 1.8 22 27.3
2008-06-13 05:27:10 51°17.044 2°37.562 16.1 1.6 26 27.2
2008-06-13 05:27:15 51°17.046 2°37.564 16.3 1.4 28 27.4
2008-06-13 05:27:19 51°17.048 2°37.565 16 1.5 31 27.7
2008-06-13 05:27:25 51°17.05 2°37.567 16.4 1.5 21 27.5
2008-06-13 05:27:30 51°17.052 2°37.569 16.6 1.7 32 27.4
2008-06-13 05:27:35 51°17.054 2°37.57 16.4 1.6 29 27.6
2008-06-13 05:27:39 51°17.056 2°37.571 16.1 1.7 24 27.4
2008-06-13 05:27:45 51°17.058 2°37.574 16.3 1.8 26 27.3
2008-06-13 05:27:50 51°17.061 2°37.575 16 1.7 20 27.3
2008-06-13 05:27:55 51°17.063 2°37.576 15.9 1.6 19 27.3
2008-06-13 05:27:59 51°17.064 2°37.577 15.4 1.6 30 27.4
2008-06-13 05:28:05 51°17.067 2°37.579 15.3 1.5 17 27.3
2008-06-13 05:28:10 51°17.069 2°37.58 15.8 1.7 22 27.2
2008-06-13 05:28:15 51°17.071 2°37.582 15.6 1.7 26 27.3
2008-06-13 05:28:19 51°17.072 2°37.583 15.7 1.3 24 27.2
2008-06-13 05:28:25 51°17.074 2°37.584 15.9 1.3 26 27.2
2008-06-13 05:28:30 51°17.076 2°37.586 15.9 1.4 31 27.2
2008-06-13 05:28:35 51°17.078 2°37.588 16.3 1.5 32 27
2008-06-13 05:28:39 51°17.079 2°37.589 17 1.7 31 26.9
2008-06-13 05:28:45 51°17.081 2°37.592 18 1.6 36 27.1
2008-06-13 05:28:50 51°17.083 2°37.593 19.2 1.6 33 27.1
2008-06-13 05:28:55 51°17.085 2°37.595 20.5 1.5 30 27.2
2008-06-13 05:28:59 51°17.086 2°37.596 21.2 1.3 38 27.2
2008-06-13 05:29:05 51°17.088 2°37.598 21.5 1.2 27 27.3
2008-06-13 05:29:10 51°17.089 2°37.6 21.4 1.4 36 27.3
2008-06-13 05:29:15 51°17.091 2°37.602 21.7 1.4 38 27.1
2008-06-13 05:29:19 51°17.092 2°37.604 21.7 1.5 41 27.2
2008-06-13 05:29:25 51°17.094 2°37.606 22.8 1.4 38 27.2
2008-06-13 05:29:29 51°17.096 2°37.608 25.1 1.3 43 27.3
2008-06-13 05:29:35 51°17.097 2°37.61 27.5 1.3 43 27.2
2008-06-13 05:29:39 51°17.098 2°37.612 29.2 1.5 53 27
2008-06-13 05:29:45 51°17.1 2°37.616 32.1 1.4 48 27.1
2008-06-13 05:29:49 51°17.101 2°37.618 36.8 1.5 56 27
2008-06-13 05:29:55 51°17.102 2°37.622 40.5 1.6 57 27
2008-06-13 05:29:59 51°17.103 2°37.624 44.1 1.7 61 27.1
2008-06-13 05:30:05 51°17.105 2°37.628 47.4 1.8 57 27.2
2008-06-13 05:30:09 51°17.106 2°37.632 48.8 2.3 61 27.3
2008-06-13 05:30:15 51°17.109 2°37.637 48.2 2.7 50 27.7
2008-06-13 05:30:19 51°17.112 2°37.641 44 3.1 44 27.7
2008-06-13 05:30:25 51°17.117 2°37.646 37.4 3.4 34 27.7
2008-06-13 05:30:29 51°17.121 2°37.649 29.7 3.6 23 27.4
2008-06-13 05:30:35 51°17.126 2°37.651 21.8 3.7 16 27.3
2008-06-13 05:30:39 51°17.13 2°37.652 14 3.5 6 27.2
2008-06-13 05:30:45 51°17.135 2°37.652 7.2 3.2 4 27.2
2008-06-13 05:30:49 51°17.138 2°37.652 1.9 3 357 27.3
2008-06-13 05:30:55 51°17.143 2°37.652 357.4 2.8 359 27.3
2008-06-13 05:30:59 51°17.146 2°37.652 355.7 2.6 359 27.3
2008-06-13 05:31:05 51°17.15 2°37.652 356 2.4 2 27.4
2008-06-13 05:31:10 51°17.153 2°37.653 358.5 2.5 9 27.3
2008-06-13 05:31:15 51°17.157 2°37.653 2.4 2.3 8 27.4
2008-06-13 05:31:19 51°17.159 2°37.655 6.6 2.4 18 27.3
2008-06-13 05:31:25 51°17.163 2°37.657 10.1 2.4 24 27.2
2008-06-13 05:31:29 51°17.164 2°37.659 16.3 2.2 31 27
2008-06-13 05:31:35 51°17.167 2°37.662 21.7 2.2 35 27.1
2008-06-13 05:31:39 51°17.169 2°37.666 26.7 2.4 46 27.2
2008-06-13 05:31:45 51°17.172 2°37.67 33.1 2.4 41 27.4
2008-06-13 05:31:49 51°17.173 2°37.673 38.8 2.2 58 27.4
2008-06-13 05:31:55 51°17.175 2°37.677 43.5 2.1 57 27.7
2008-06-13 05:31:59 51°17.176 2°37.68 47.6 1.7 64 27.8
2008-06-13 05:32:05 51°17.177 2°37.683 50 1.4 56 28
2008-06-13 05:32:09 51°17.178 2°37.686 52 1.4 71 27.8
2008-06-13 05:32:15 51°17.178 2°37.689 53.2 1.2 75 27.6
2008-06-13 05:32:19 51°17.178 2°37.69 54.3 1.1 93 27.7
2008-06-13 05:32:25 51°17.178 2°37.693 56.6 0.9 106 27.7
2008-06-13 05:32:29 51°17.178 2°37.693 58.3 0.5 81 27.9
2008-06-13 05:32:35 51°17.177 2°37.695 60.6 0.7 107 27.8
2008-06-13 05:32:39 51°17.177 2°37.697 62.3 0.6 103 27.9
2008-06-13 05:32:45 51°17.177 2°37.698 63.4 0.6 107 27.9
2008-06-13 05:32:49 51°17.176 2°37.7 63 0.7 115 27.9
2008-06-13 05:32:55 51°17.176 2°37.701 63.3 0.6 95 27.9
2008-06-13 05:32:59 51°17.176 2°37.703 62.8 0.9 117 28
2008-06-13 05:33:05 51°17.176 2°37.705 61.5 0.7 98 28
2008-06-13 05:33:09 51°17.175 2°37.706 60.9 0.9 124 27.8
2008-06-13 05:33:15 51°17.174 2°37.707 59.9 0.6 119 27.9
2008-06-13 05:33:19 51°17.174 2°37.709 58.5 0.8 126 27.9
2008-06-13 05:33:25 51°17.173 2°37.711 56.7 0.8 127 27.9
2008-06-13 05:33:29 51°17.172 2°37.712 54.6 0.8 128 27.8
2008-06-13 05:33:35 51°17.172 2°37.713 54.5 0.7 125 27.8
2008-06-13 05:33:39 51°17.171 2°37.714 52.6 0.8 129 27.6
2008-06-13 05:33:45 51°17.17 2°37.716 51.7 0.7 130 27.6
2008-06-13 05:33:49 51°17.17 2°37.716 51.3 0.8 143 27.6
2008-06-13 05:33:55 51°17.169 2°37.717 51.1 0.5 141 27.7
2008-06-13 05:33:59 51°17.168 2°37.719 50.4 0.8 137 27.8
2008-06-13 05:34:03 51°17.168 2°37.719 48.8 0.7 134 27.8
2008-06-13 05:34:09 51°17.167 2°37.72 47.3 0.9 148 27.8
2008-06-13 05:34:15 51°17.165 2°37.721 47.5 1.1 148 28
2008-06-13 05:34:19 51°17.165 2°37.722 46.4 0.4 173 27.9
2008-06-13 05:34:25 51°17.164 2°37.723 46.5 1.1 147 27.6
2008-06-13 05:34:29 51°17.163 2°37.723 46.5 0.5 158 27.5
2008-06-13 05:34:35 51°17.162 2°37.725 47.1 0.8 153 27.5
2008-06-13 05:34:39 51°17.161 2°37.725 47.5 0.7 153 27.5
2008-06-13 05:34:45 51°17.16 2°37.726 47.8 0.9 149 27.3
2008-06-13 05:34:49 51°17.159 2°37.727 48.2 0.7 150 27.3
2008-06-13 05:34:55 51°17.158 2°37.728 48.6 0.9 153 27.3
2008-06-13 05:34:59 51°17.157 2°37.728 48.5 0.6 163 27.6
2008-06-13 05:35:05 51°17.156 2°37.729 48.9 0.8 165 27.5
2008-06-13 05:35:09 51°17.155 2°37.729 49.5 0.8 166 27.5
2008-06-13 05:35:15 51°17.154 2°37.73 49.6 0.8 166 27.6
2008-06-13 05:35:19 51°17.153 2°37.731 50.1 0.6 160 27.4
2008-06-13 05:35:25 51°17.152 2°37.732 50.6 1 154 27.2
2008-06-13 05:35:29 51°17.151 2°37.731 51.2 0.8 160 27.4
2008-06-13 05:35:35 51°17.15 2°37.732 51.8 0.8 160 27.4
2008-06-13 05:35:39 51°17.149 2°37.733 51.8 0.8 158 27.3
2008-06-13 05:35:45 51°17.148 2°37.734 52 1 165 27.3
2008-06-13 05:35:49 51°17.147 2°37.734 52.7 0.7 164 27.3
2008-06-13 05:35:55 51°17.145 2°37.735 53 1.2 154 27.1
2008-06-13 05:35:59 51°17.144 2°37.735 53.8 0.9 173 27.2
2008-06-13 05:36:05 51°17.143 2°37.736 55.1 1.1 168 27.2